Time;durP1;ratioP1;P1;durP2;ratioP2;P2;SDS_P1;SDS_P2;PMS_P1;PMS_P2;Temp;Humidity;BMP_temperature;BMP_pressure;BME280_temperature;BME280_humidity;BME280_pressure;Samples;Min_cycle;Max_cycle;Signal;HPM_P1;HPM_P2
2022/05/16 00:02:24;;;;;;;3.40;3.28;;;16.40;82.20;;;;;;5014053;28;20189;-75
2022/05/16 00:04:51;;;;;;;3.40;3.22;;;16.40;82.50;;;;;;5014239;28;20302;-77
2022/05/16 00:07:20;;;;;;;3.50;3.22;;;16.40;82.40;;;;;;5011328;28;20191;-75
2022/05/16 00:09:47;;;;;;;3.70;3.45;;;16.40;82.70;;;;;;5017951;28;20260;-75
2022/05/16 00:12:14;;;;;;;4.32;3.95;;;16.30;83.50;;;;;;5018547;28;20638;-76
2022/05/16 00:14:42;;;;;;;3.20;3.00;;;16.30;82.70;;;;;;5019895;28;20272;-76
2022/05/16 00:17:08;;;;;;;3.67;3.47;;;16.20;82.80;;;;;;5016220;28;20215;-75
2022/05/16 00:19:33;;;;;;;3.83;3.63;;;16.20;82.80;;;;;;5016384;28;20191;-76
2022/05/16 00:21:59;;;;;;;3.70;3.60;;;16.20;83.60;;;;;;5010307;28;20184;-75
2022/05/16 00:24:28;;;;;;;3.03;2.90;;;16.20;83.00;;;;;;5019205;28;20188;-75
2022/05/16 00:26:55;;;;;;;3.83;3.63;;;16.10;83.80;;;;;;5010622;28;20285;-78
2022/05/16 00:29:22;;;;;;;4.60;4.18;;;16.10;83.70;;;;;;5010822;28;20584;-77
2022/05/16 00:31:48;;;;;;;3.90;3.63;;;16.10;84.20;;;;;;5012160;28;20189;-76
2022/05/16 00:34:14;;;;;;;4.15;3.85;;;16.00;84.30;;;;;;5016219;28;20239;-76
2022/05/16 00:36:43;;;;;;;3.55;3.45;;;;;;;;;;5013490;28;20220;-76
2022/05/16 00:39:09;;;;;;;3.92;3.63;;;15.90;83.90;;;;;;5016716;28;20820;-76
2022/05/16 00:41:34;;;;;;;3.10;2.80;;;15.80;83.70;;;;;;5016601;28;20213;-76
2022/05/16 00:44:00;;;;;;;4.55;4.10;;;15.80;83.20;;;;;;5018607;28;20188;-76
2022/05/16 00:46:30;;;;;;;3.28;3.08;;;15.80;83.20;;;;;;5008369;28;20188;-76
2022/05/16 00:48:58;;;;;;;3.22;3.13;;;15.70;83.20;;;;;;5017573;28;20180;-76
2022/05/16 00:51:34;;;;;;;2.97;2.88;;;15.70;83.90;;;;;;5047456;28;20238;-77
2022/05/16 00:54:22;;;;;;;3.38;3.25;;;15.70;83.40;;;;;;5019061;28;20261;-76
2022/05/16 00:56:52;;;;;;;3.95;3.28;;;15.70;83.00;;;;;;5010761;28;20722;-77
2022/05/16 00:59:19;;;;;;;3.85;3.65;;;15.70;83.40;;;;;;5015208;28;20643;-76
2022/05/16 01:04:47;;;;;;;3.83;3.53;;;15.60;84.90;;;;;;5009844;28;20232;-76
2022/05/16 01:07:18;;;;;;;4.07;3.78;;;15.50;85.00;;;;;;5014222;28;20330;-76
2022/05/16 01:09:43;;;;;;;3.67;3.28;;;15.50;84.60;;;;;;5015381;28;20180;-76
2022/05/16 01:12:10;;;;;;;5.00;3.95;;;15.50;84.30;;;;;;5010949;28;20177;-76
2022/05/16 01:14:50;;;;;;;3.97;3.47;;;15.40;84.80;;;;;;5011496;28;20694;-76
2022/05/16 01:17:16;;;;;;;3.60;3.30;;;15.40;84.10;;;;;;5010952;28;20218;-76
2022/05/16 01:19:42;;;;;;;3.92;3.38;;;15.30;84.80;;;;;;5011194;28;20193;-76
2022/05/16 01:22:30;;;;;;;3.53;3.13;;;15.30;84.80;;;;;;5011477;28;20187;-77
2022/05/16 01:24:59;;;;;;;3.50;3.30;;;15.30;85.10;;;;;;5012718;28;20197;-77
2022/05/16 01:27:25;;;;;;;3.20;3.05;;;15.30;85.00;;;;;;5009632;28;20268;-77
2022/05/16 01:29:51;;;;;;;3.53;3.22;;;;;;;;;;5011924;28;20277;-77
2022/05/16 01:32:18;;;;;;;3.78;3.47;;;15.30;85.20;;;;;;5010452;28;20189;-76
2022/05/16 01:34:44;;;;;;;3.08;2.88;;;15.20;85.00;;;;;;5009778;28;20656;-76
2022/05/16 01:37:10;;;;;;;2.83;2.72;;;;;;;;;;5010112;28;20258;-76
2022/05/16 01:39:36;;;;;;;3.17;3.05;;;15.20;85.10;;;;;;5006459;28;20208;-77
2022/05/16 01:42:02;;;;;;;3.45;3.25;;;15.20;84.90;;;;;;5012176;28;20180;-77
2022/05/16 01:44:28;;;;;;;3.40;3.28;;;;;;;;;;5013086;28;20412;-76
2022/05/16 01:46:53;;;;;;;5.28;3.47;;;15.20;85.20;;;;;;5011676;28;20184;-77
2022/05/16 01:49:19;;;;;;;3.78;3.58;;;;;;;;;;5012456;28;20192;-77
2022/05/16 01:51:45;;;;;;;3.83;3.53;;;15.10;85.20;;;;;;5015149;28;20683;-76
2022/05/16 01:54:11;;;;;;;3.45;3.15;;;;;;;;;;5011071;28;20209;-77
2022/05/16 01:56:37;;;;;;;3.53;3.33;;;15.00;84.70;;;;;;5012062;28;20327;-77
2022/05/16 01:59:04;;;;;;;3.63;3.42;;;15.00;85.30;;;;;;5004249;28;20272;-76
2022/05/16 02:01:30;;;;;;;2.75;2.65;;;15.00;84.70;;;;;;5010667;28;20192;-76
2022/05/16 02:03:56;;;;;;;3.90;3.28;;;14.90;85.40;;;;;;5010594;28;20192;-77
2022/05/16 02:06:22;;;;;;;3.70;3.40;;;14.90;85.20;;;;;;5010183;28;20250;-77
2022/05/16 02:08:48;;;;;;;3.70;3.38;;;14.90;85.10;;;;;;5012459;28;20176;-77
2022/05/16 02:11:15;;;;;;;3.75;3.55;;;14.90;85.10;;;;;;5015302;28;20177;-76
2022/05/16 02:13:42;;;;;;;6.82;3.47;;;14.90;85.20;;;;;;5008741;28;20196;-76
2022/05/16 02:16:08;;;;;;;3.28;2.92;;;14.90;85.20;;;;;;5006628;28;20209;-77
2022/05/16 02:18:34;;;;;;;3.20;2.95;;;14.90;85.20;;;;;;5005335;28;1162590;-76
2022/05/16 02:26:29;;;;;;;4.82;3.10;;;14.80;85.40;;;;;;5013955;28;20327;-76
2022/05/16 02:28:55;;;;;;;4.45;3.35;;;14.80;85.70;;;;;;5005118;28;20264;-76
2022/05/16 02:31:21;;;;;;;3.75;3.45;;;14.80;85.50;;;;;;5016209;28;20260;-77
2022/05/16 02:33:48;;;;;;;3.40;3.17;;;14.80;85.60;;;;;;5014699;28;20189;-77
2022/05/16 02:36:13;;;;;;;3.42;3.25;;;14.70;85.80;;;;;;5045783;28;20282;-77
2022/05/16 02:38:39;;;;;;;3.72;3.53;;;14.70;85.90;;;;;;5015930;28;20721;-77
2022/05/16 02:41:05;;;;;;;3.38;3.28;;;14.70;86.00;;;;;;5009951;28;20271;-77
2022/05/16 02:43:32;;;;;;;3.22;3.03;;;14.70;85.90;;;;;;5011624;28;20668;-77
2022/05/16 02:45:59;;;;;;;3.13;3.03;;;14.70;86.00;;;;;;5008940;28;20303;-77
2022/05/16 02:48:24;;;;;;;4.10;3.88;;;14.70;86.20;;;;;;5013447;28;20267;-77
2022/05/16 02:50:50;;;;;;;3.65;3.45;;;;;;;;;;5011693;28;20675;-78
2022/05/16 02:53:16;;;;;;;2.80;2.70;;;14.60;86.30;;;;;;5009208;28;20189;-77
2022/05/16 02:55:42;;;;;;;3.47;3.33;;;14.70;86.00;;;;;;5016435;28;20231;-77
2022/05/16 02:58:09;;;;;;;3.70;3.33;;;14.60;86.10;;;;;;5012074;28;20272;-78
2022/05/16 03:00:35;;;;;;;3.85;3.22;;;14.60;85.90;;;;;;5012692;28;20691;-78
2022/05/16 03:03:01;;;;;;;3.55;3.20;;;14.50;86.10;;;;;;5006292;28;20184;-78
2022/05/16 03:05:27;;;;;;;3.25;3.13;;;;;;;;;;5013972;28;20312;-78
2022/05/16 03:07:53;;;;;;;2.95;2.85;;;14.50;86.30;;;;;;5014566;28;20641;-78
2022/05/16 03:10:19;;;;;;;4.72;3.92;;;14.50;86.20;;;;;;5013772;28;20256;-77
2022/05/16 03:12:45;;;;;;;3.63;3.10;;;14.50;86.50;;;;;;5013316;28;20187;-78
2022/05/16 03:15:13;;;;;;;3.08;2.95;;;14.50;86.30;;;;;;5016691;28;20195;-77
2022/05/16 03:17:39;;;;;;;5.18;3.25;;;14.40;86.40;;;;;;5017432;28;20286;-77
2022/05/16 03:20:08;;;;;;;6.80;3.30;;;14.40;86.40;;;;;;5015580;28;20268;-77
2022/05/16 03:22:33;;;;;;;3.65;3.35;;;14.40;86.30;;;;;;5015650;28;20322;-77
2022/05/16 03:24:59;;;;;;;3.60;3.30;;;14.40;86.50;;;;;;5023236;28;20712;-77
2022/05/16 03:27:25;;;;;;;3.67;3.35;;;14.40;86.70;;;;;;5010098;28;20184;-78
2022/05/16 03:29:51;;;;;;;3.72;3.53;;;14.40;86.50;;;;;;5046627;28;20196;-78
2022/05/16 03:32:18;;;;;;;4.07;3.67;;;14.40;86.50;;;;;;5044843;28;20279;-77
2022/05/16 03:34:44;;;;;;;3.05;2.95;;;;;;;;;;5010952;28;20185;-77
2022/05/16 03:37:09;;;;;;;3.92;3.63;;;14.40;86.80;;;;;;5012737;28;20213;-76
2022/05/16 03:42:20;;;;;;;3.92;3.55;;;14.30;86.80;;;;;;5014930;28;20196;-76
2022/05/16 03:44:46;;;;;;;4.05;3.83;;;;;;;;;;5010834;28;20176;-76
2022/05/16 03:47:11;;;;;;;3.58;3.38;;;14.30;86.90;;;;;;5017150;28;20184;-76
2022/05/16 03:49:38;;;;;;;3.10;2.90;;;14.30;87.40;;;;;;5012899;28;20658;-76
2022/05/16 03:52:04;;;;;;;3.47;3.25;;;14.30;87.40;;;;;;5016753;28;20212;-76
2022/05/16 03:54:30;;;;;;;6.07;3.50;;;;;;;;;;5013120;28;20580;-76
2022/05/16 03:56:55;;;;;;;4.55;4.15;;;14.30;87.30;;;;;;5012700;28;20236;-77
2022/05/16 03:59:21;;;;;;;4.65;3.83;;;;;;;;;;5009350;28;20185;-76
2022/05/16 04:01:49;;;;;;;4.10;3.80;;;14.30;87.30;;;;;;5008490;28;20187;-77
2022/05/16 04:04:16;;;;;;;4.50;4.10;;;14.30;87.20;;;;;;5013225;28;20188;-78
2022/05/16 04:06:42;;;;;;;4.53;4.07;;;14.30;87.10;;;;;;5029707;28;20184;-76
2022/05/16 04:09:08;;;;;;;3.83;3.60;;;;;;;;;;5008979;28;20921;-78
2022/05/16 04:11:34;;;;;;;6.97;4.20;;;14.30;87.50;;;;;;5016447;28;20196;-77
2022/05/16 04:13:59;;;;;;;5.60;3.88;;;14.30;87.50;;;;;;5015806;28;20181;-77
2022/05/16 04:16:25;;;;;;;4.10;3.70;;;14.30;87.10;;;;;;5011291;28;20274;-77
2022/05/16 04:18:51;;;;;;;5.57;3.67;;;14.30;86.80;;;;;;5018032;28;20592;-77
2022/05/16 04:21:17;;;;;;;4.88;4.25;;;;;;;;;;5015252;28;20191;-77
2022/05/16 04:23:43;;;;;;;6.75;4.40;;;14.40;87.30;;;;;;5010530;28;20248;-77
2022/05/16 04:26:09;;;;;;;4.70;4.25;;;14.50;87.20;;;;;;5015084;28;20193;-77
2022/05/16 04:28:35;;;;;;;6.40;4.50;;;;;;;;;;5009980;28;20196;-78
2022/05/16 04:31:00;;;;;;;5.35;4.00;;;14.50;87.10;;;;;;5014116;28;20187;-77
2022/05/16 04:33:26;;;;;;;4.45;3.90;;;;;;;;;;5013480;28;20716;-77
2022/05/16 04:35:52;;;;;;;4.75;4.30;;;14.50;86.80;;;;;;5012821;28;20228;-77
2022/05/16 04:38:18;;;;;;;4.15;3.72;;;14.50;86.90;;;;;;5010573;28;20189;-77
2022/05/16 04:43:29;;;;;;;3.10;2.95;;;14.50;86.70;;;;;;5016219;28;20195;-77
2022/05/16 04:45:54;;;;;;;3.88;3.70;;;14.50;86.70;;;;;;5013678;28;20185;-78
2022/05/16 04:48:20;;;;;;;3.85;3.50;;;14.60;86.80;;;;;;5009505;28;20181;-76
2022/05/16 04:50:46;;;;;;;4.20;3.80;;;14.60;86.80;;;;;;5019715;28;20547;-76
2022/05/16 04:53:12;;;;;;;4.75;4.03;;;;;;;;;;5010820;28;20195;-76
2022/05/16 04:55:38;;;;;;;3.95;3.75;;;14.70;86.60;;;;;;5015694;28;20204;-77
2022/05/16 04:58:04;;;;;;;4.20;3.83;;;14.70;87.10;;;;;;5011004;28;20386;-75
2022/05/16 05:00:29;;;;;;;3.95;3.53;;;14.80;86.90;;;;;;5009716;28;20651;-75
2022/05/16 05:02:57;;;;;;;4.70;4.30;;;14.80;86.50;;;;;;5016225;28;20184;-75
2022/05/16 05:05:23;;;;;;;4.40;4.10;;;14.90;86.30;;;;;;5014121;28;20177;-75
2022/05/16 05:07:49;;;;;;;5.93;5.20;;;14.90;86.40;;;;;;5013782;28;20566;-75
2022/05/16 05:15:50;;;;;;;3.70;3.55;;;15.10;86.30;;;;;;5010649;28;20812;-76
2022/05/16 05:18:16;;;;;;;5.30;4.03;;;15.20;86.20;;;;;;5011243;28;20670;-77
2022/05/16 05:20:44;;;;;;;5.90;3.63;;;;;;;;;;5006878;28;20188;-77
2022/05/16 05:23:10;;;;;;;4.43;4.13;;;;;;;;;;5013584;28;20246;-79
2022/05/16 05:25:36;;;;;;;4.10;3.80;;;15.30;85.80;;;;;;5012944;28;20191;-77
2022/05/16 05:28:02;;;;;;;3.97;3.75;;;15.40;85.80;;;;;;5012297;28;20184;-77
2022/05/16 05:30:30;;;;;;;3.28;3.13;;;15.40;85.60;;;;;;5010037;28;20706;-75
2022/05/16 05:32:57;;;;;;;3.60;3.40;;;15.40;85.70;;;;;;5042970;28;20191;-76
2022/05/16 05:35:23;;;;;;;3.65;3.50;;;15.50;85.60;;;;;;5042178;28;20216;-77
2022/05/16 05:37:48;;;;;;;4.40;4.00;;;15.50;85.60;;;;;;5011602;28;20216;-77
2022/05/16 05:40:15;;;;;;;4.30;3.95;;;15.60;85.80;;;;;;5011767;28;20568;-76
2022/05/16 05:42:41;;;;;;;3.83;3.58;;;15.70;86.30;;;;;;5012949;28;20279;-77
2022/05/16 05:45:09;;;;;;;4.45;4.00;;;15.70;85.70;;;;;;5015045;28;20258;-76
2022/05/16 05:47:35;;;;;;;4.85;3.70;;;15.80;85.50;;;;;;5047609;28;20192;-77
2022/05/16 05:50:01;;;;;;;6.53;4.25;;;15.90;85.80;;;;;;5009395;28;20276;-78
2022/05/16 05:52:30;;;;;;;5.32;4.35;;;15.90;85.00;;;;;;5010167;28;21109;-78
2022/05/16 05:54:56;;;;;;;4.60;4.30;;;15.90;85.00;;;;;;5041305;28;21191;-78
2022/05/16 05:57:22;;;;;;;4.85;3.80;;;16.00;85.00;;;;;;5008261;28;20267;-79
2022/05/16 05:59:48;;;;;;;5.07;3.97;;;16.00;85.00;;;;;;5007981;28;20177;-77
2022/05/16 06:02:17;;;;;;;6.28;4.10;;;16.20;85.00;;;;;;5004034;28;21488;-76
2022/05/16 06:04:43;;;;;;;3.80;3.60;;;16.20;84.60;;;;;;5013082;28;20203;-75
2022/05/16 06:07:08;;;;;;;5.90;4.35;;;16.20;84.40;;;;;;5013432;28;20729;-75
2022/05/16 06:09:34;;;;;;;5.40;4.78;;;;;;;;;;5011025;28;20184;-75
2022/05/16 06:12:05;;;;;;;4.43;4.05;;;16.40;83.60;;;;;;5008355;28;20679;-75
2022/05/16 06:14:32;;;;;;;6.00;3.95;;;16.40;83.50;;;;;;5006600;28;20184;-75
2022/05/16 06:16:58;;;;;;;4.30;4.00;;;16.40;84.40;;;;;;5010205;28;20597;-75
2022/05/16 06:19:24;;;;;;;4.05;3.85;;;16.50;83.70;;;;;;5008688;28;20196;-76
2022/05/16 06:21:49;;;;;;;5.32;3.83;;;16.50;83.60;;;;;;5007177;28;20216;-75
2022/05/16 06:27:01;;;;;;;6.25;4.50;;;16.70;82.70;;;;;;5008386;28;20335;-73
2022/05/16 06:29:27;;;;;;;4.20;3.97;;;16.70;82.20;;;;;;5005686;28;20181;-73
2022/05/16 06:31:53;;;;;;;4.32;3.90;;;16.80;83.00;;;;;;5003127;28;20190;-73
2022/05/16 06:34:20;;;;;;;4.50;4.20;;;16.80;82.40;;;;;;5012439;28;20185;-74
2022/05/16 06:36:46;;;;;;;4.00;3.80;;;16.80;82.20;;;;;;5007917;28;20718;-73
2022/05/16 06:39:12;;;;;;;3.92;3.65;;;16.90;82.80;;;;;;5004772;28;20346;-73
2022/05/16 06:41:39;;;;;;;4.32;3.75;;;17.00;82.80;;;;;;5005381;28;20692;-74
2022/05/16 06:44:04;;;;;;;4.30;3.95;;;17.00;82.20;;;;;;5006861;28;20192;-74
2022/05/16 06:46:30;;;;;;;8.20;4.43;;;17.10;82.10;;;;;;5004620;28;20193;-74
2022/05/16 06:48:56;;;;;;;4.70;4.13;;;17.30;82.30;;;;;;5005198;28;20181;-74
2022/05/16 06:51:22;;;;;;;5.10;4.70;;;17.30;82.30;;;;;;5005428;28;20173;-73
2022/05/16 06:53:51;;;;;;;5.57;5.00;;;17.40;82.70;;;;;;5014868;28;20189;-74
2022/05/16 06:56:17;;;;;;;6.25;4.97;;;17.50;81.90;;;;;;5037460;28;20216;-74
2022/05/16 06:58:43;;;;;;;9.93;4.63;;;17.50;82.10;;;;;;5010239;28;20204;-73
2022/05/16 07:01:08;;;;;;;5.75;5.25;;;17.70;81.30;;;;;;5011903;28;20226;-73
2022/05/16 07:03:35;;;;;;;5.90;5.50;;;;;;;;;;5010620;28;20188;-73
2022/05/16 07:06:01;;;;;;;5.35;4.78;;;17.80;81.00;;;;;;5013465;28;20184;-74
2022/05/16 07:08:27;;;;;;;5.65;5.10;;;17.80;80.90;;;;;;5010926;28;20188;-74
2022/05/16 07:10:53;;;;;;;4.10;3.80;;;;;;;;;;5012842;28;20292;-74
2022/05/16 07:13:19;;;;;;;5.15;4.75;;;18.00;81.20;;;;;;5014582;28;20184;-74
2022/05/16 07:15:45;;;;;;;8.50;4.35;;;18.10;80.90;;;;;;5013471;28;20213;-73
2022/05/16 07:18:11;;;;;;;7.43;5.35;;;18.20;77.80;;;;;;5011697;28;20683;-74
2022/05/16 07:20:39;;;;;;;5.55;5.15;;;18.20;77.70;;;;;;5010626;28;20177;-74
2022/05/16 07:23:05;;;;;;;7.78;5.60;;;18.30;77.00;;;;;;5010523;28;20185;-73
2022/05/16 07:27:56;;;;;;;5.20;4.80;;;18.40;77.00;;;;;;5018031;28;20180;-73
2022/05/16 07:28:17;;;;;;;5.50;5.20;;;18.40;77.30;;;;;;5016243;28;20679;-74
2022/05/16 07:30:46;;;;;;;6.68;5.20;;;18.50;77.60;;;;;;5016596;28;20232;-74
2022/05/16 07:33:12;;;;;;;5.20;4.65;;;18.60;77.70;;;;;;5018179;28;20184;-75
2022/05/16 07:35:38;;;;;;;4.68;4.38;;;18.70;78.60;;;;;;5019022;28;20215;-74
2022/05/16 07:38:05;;;;;;;6.78;4.90;;;18.80;77.10;;;;;;5032885;28;20702;-75
2022/05/16 07:40:33;;;;;;;5.40;5.00;;;18.90;77.10;;;;;;5007912;28;20185;-74
2022/05/16 07:43:00;;;;;;;5.70;4.47;;;19.00;76.50;;;;;;5006729;28;20718;-74
2022/05/16 07:45:26;;;;;;;5.03;4.10;;;19.00;75.90;;;;;;5009519;28;20364;-75
2022/05/16 07:47:52;;;;;;;4.82;4.43;;;19.10;76.40;;;;;;5017531;28;20630;-74
2022/05/16 07:50:18;;;;;;;4.20;3.90;;;19.20;76.30;;;;;;5009450;28;21070;-75
2022/05/16 07:52:47;;;;;;;4.43;4.13;;;19.20;75.70;;;;;;5012351;28;20198;-74
2022/05/16 07:55:16;;;;;;;3.80;3.63;;;19.30;76.20;;;;;;5045909;28;20184;-73
2022/05/16 07:57:42;;;;;;;3.75;3.45;;;19.40;75.90;;;;;;5038011;28;20287;-74
2022/05/16 08:00:08;;;;;;;3.42;3.17;;;19.50;75.10;;;;;;5017059;28;20631;-74
2022/05/16 08:02:34;;;;;;;3.13;2.92;;;19.60;73.80;;;;;;5016748;28;20191;-73
2022/05/16 08:05:00;;;;;;;2.22;2.13;;;19.70;73.90;;;;;;5011745;28;20176;-74
2022/05/16 08:07:26;;;;;;;2.90;2.80;;;19.70;73.70;;;;;;5017015;28;20190;-73
2022/05/16 08:12:37;;;;;;;3.67;3.38;;;19.90;73.70;;;;;;5017465;28;20203;-73
2022/05/16 08:15:04;;;;;;;3.08;2.72;;;20.00;73.20;;;;;;5017027;28;20199;-73
2022/05/16 08:17:31;;;;;;;4.10;2.83;;;20.00;70.70;;;;;;5012383;28;20224;-74
2022/05/16 08:19:57;;;;;;;3.50;2.70;;;20.10;70.50;;;;;;5044687;28;20188;-73
2022/05/16 08:22:28;;;;;;;2.17;2.08;;;20.20;70.30;;;;;;5012591;28;20215;-73
2022/05/16 08:24:54;;;;;;;3.03;2.35;;;20.30;70.90;;;;;;5012505;28;20634;-74
2022/05/16 08:27:20;;;;;;;4.75;2.10;;;20.30;70.10;;;;;;5012755;28;20299;-73
2022/05/16 08:29:46;;;;;;;2.67;2.47;;;20.40;70.70;;;;;;5009755;28;20185;-74
2022/05/16 08:32:20;;;;;;;2.60;2.45;;;20.50;69.30;;;;;;5013080;28;20177;-74
2022/05/16 08:34:46;;;;;;;2.13;2.13;;;20.60;69.00;;;;;;5044700;28;20196;-74
2022/05/16 08:40:01;;;;;;;2.15;2.05;;;20.80;70.00;;;;;;5010352;28;20312;-73
2022/05/16 08:43:03;;;;;;;5.05;2.08;;;20.90;69.00;;;;;;5041349;28;20192;-74
2022/05/16 08:45:29;;;;;;;1.90;1.80;;;21.00;69.60;;;;;;5014086;28;20185;-76
2022/05/16 08:48:06;;;;;;;2.03;1.85;;;21.20;66.70;;;;;;5011909;28;20516;-75
2022/05/16 08:50:46;;;;;;;1.45;1.35;;;21.20;64.90;;;;;;5008373;28;20177;-74
2022/05/16 08:53:16;;;;;;;1.52;1.52;;;21.30;64.00;;;;;;5009984;28;20306;-74
2022/05/16 08:55:50;;;;;;;1.55;1.50;;;21.30;62.50;;;;;;5019678;28;20209;-74
2022/05/16 08:58:26;;;;;;;2.08;1.42;;;21.40;65.40;;;;;;5013140;28;20204;-75
2022/05/16 09:00:52;;;;;;;2.25;0.93;;;;;;;;;;5009714;28;20638;-74
2022/05/16 09:03:33;;;;;;;0.90;0.90;;;21.60;65.80;;;;;;5012367;28;20768;-74
2022/05/16 09:06:13;;;;;;;1.00;0.90;;;21.70;64.60;;;;;;5016312;28;20231;-75
2022/05/16 09:09:10;;;;;;;1.10;1.10;;;21.90;64.40;;;;;;5017276;28;20197;-75
2022/05/16 09:11:54;;;;;;;1.05;0.98;;;22.00;62.70;;;;;;5009356;28;20264;-75
2022/05/16 09:14:20;;;;;;;0.85;0.85;;;;;;;;;;5011007;28;20185;-75
2022/05/16 09:17:04;;;;;;;1.20;1.15;;;22.20;59.70;;;;;;5010674;28;20246;-75
2022/05/16 09:20:07;;;;;;;1.85;1.08;;;22.30;60.00;;;;;;5004175;28;20197;-75
2022/05/16 09:22:59;;;;;;;1.20;0.80;;;22.50;60.90;;;;;;5011346;28;20185;-75
2022/05/16 09:25:34;;;;;;;1.02;1.02;;;22.60;60.30;;;;;;5010424;28;20631;-75
2022/05/16 09:30:48;;;;;;;1.35;1.25;;;22.90;61.90;;;;;;4942431;28;20680;-75
2022/05/16 09:33:24;;;;;;;1.17;1.08;;;23.00;59.80;;;;;;4941299;29;20195;-75
2022/05/16 09:36:06;;;;;;;4.22;0.98;;;23.20;59.90;;;;;;4942216;29;20313;-75
2022/05/16 09:38:32;;;;;;;1.00;1.00;;;23.40;54.80;;;;;;4940158;29;20752;-75
2022/05/16 09:41:01;;;;;;;0.85;0.85;;;23.50;55.70;;;;;;4942736;28;20195;-75
2022/05/16 09:43:32;;;;;;;1.17;0.80;;;23.80;54.00;;;;;;4945329;28;20265;-76
2022/05/16 09:46:13;;;;;;;0.98;0.98;;;23.80;54.00;;;;;;4944756;28;20204;-75
2022/05/16 09:48:39;;;;;;;0.80;0.80;;;23.80;51.10;;;;;;4943752;28;20199;-75
2022/05/16 09:51:07;;;;;;;1.05;1.05;;;23.90;52.10;;;;;;4944007;28;20237;-75
2022/05/16 09:53:39;;;;;;;1.75;1.10;;;24.10;50.30;;;;;;4942800;29;20189;-75
2022/05/16 09:56:12;;;;;;;0.73;0.73;;;24.20;52.30;;;;;;4942384;28;20834;-76
2022/05/16 09:59:04;;;;;;;0.80;0.80;;;24.30;52.00;;;;;;4942435;29;20191;-75
2022/05/16 10:01:43;;;;;;;1.38;0.98;;;24.60;52.20;;;;;;4926091;29;20199;-75
2022/05/16 10:04:15;;;;;;;1.65;1.30;;;24.90;52.20;;;;;;4942833;29;20261;-75
2022/05/16 10:06:44;;;;;;;0.80;0.80;;;25.30;50.20;;;;;;4941631;28;20325;-75
2022/05/16 10:09:15;;;;;;;1.38;0.90;;;26.00;51.00;;;;;;5014432;28;20200;-75
2022/05/16 10:11:44;;;;;;;1.00;1.00;;;26.00;51.10;;;;;;5014729;28;20666;-74
2022/05/16 10:14:11;;;;;;;1.63;0.77;;;;;;;;;;5009483;28;20176;-75
2022/05/16 10:16:41;;;;;;;2.75;0.80;;;27.20;49.20;;;;;;5013049;28;20587;-75
2022/05/16 10:19:10;;;;;;;0.73;0.73;;;27.90;47.10;;;;;;5012993;28;20184;-75
2022/05/16 10:22:00;;;;;;;0.90;0.85;;;28.60;46.50;;;;;;5030787;28;20212;-74
2022/05/16 10:24:31;;;;;;;0.75;0.75;;;29.50;46.00;;;;;;5013336;28;20185;-76
2022/05/16 10:27:02;;;;;;;1.20;0.93;;;30.20;45.20;;;;;;5020513;28;20192;-75
2022/05/16 10:29:31;;;;;;;0.80;0.80;;;30.70;45.40;;;;;;5019366;28;20189;-76
2022/05/16 10:34:59;;;;;;;1.65;0.90;;;31.30;43.70;;;;;;5019078;28;20708;-75
2022/05/16 10:37:27;;;;;;;1.75;0.60;;;31.70;43.50;;;;;;5047549;28;20244;-76
2022/05/16 10:40:03;;;;;;;0.73;0.73;;;31.90;43.70;;;;;;5013349;28;20177;-75
2022/05/16 10:42:38;;;;;;;0.85;0.70;;;32.30;43.10;;;;;;5018315;28;20189;-75
2022/05/16 10:45:14;;;;;;;2.47;0.90;;;32.60;42.90;;;;;;5018009;28;20184;-76
2022/05/16 10:48:00;;;;;;;0.70;0.70;;;32.80;42.00;;;;;;5051322;28;20316;-74
2022/05/16 10:50:49;;;;;;;0.75;0.68;;;32.80;42.00;;;;;;5051294;28;20234;-76
2022/05/16 10:53:25;;;;;;;1.17;0.75;;;32.70;43.00;;;;;;4947213;28;20198;-74
2022/05/16 10:56:05;;;;;;;1.15;1.00;;;32.90;44.70;;;;;;4946765;29;20581;-74
2022/05/16 10:58:37;;;;;;;0.70;0.70;;;33.00;43.50;;;;;;4946854;28;20355;-74
2022/05/16 11:01:20;;;;;;;4.15;1.08;;;33.20;42.20;;;;;;4944952;29;20282;-75
2022/05/16 11:04:09;;;;;;;1.13;0.98;;;33.50;43.60;;;;;;4945546;28;20222;-75
2022/05/16 11:07:15;;;;;;;2.60;0.75;;;33.90;42.50;;;;;;4915247;29;20214;-75
2022/05/16 11:10:03;;;;;;;0.60;0.60;;;34.30;41.20;;;;;;4916212;29;20708;-75
2022/05/16 11:12:36;;;;;;;0.65;0.65;;;34.80;40.10;;;;;;4915184;29;20303;-75
2022/05/16 11:15:10;;;;;;;3.38;0.80;;;34.80;41.10;;;;;;4916743;29;20191;-75
2022/05/16 11:17:53;;;;;;;2.30;0.70;;;34.50;42.20;;;;;;4914816;29;20329;-75
2022/05/16 11:20:43;;;;;;;1.42;0.65;;;34.10;42.70;;;;;;4911404;29;20203;-76
2022/05/16 11:23:47;;;;;;;0.60;0.60;;;34.10;41.00;;;;;;4908235;29;20367;-75
2022/05/16 11:26:37;;;;;;;0.70;0.40;;;34.40;42.10;;;;;;4913750;29;20191;-75
2022/05/16 11:29:17;;;;;;;0.63;0.63;;;35.30;40.10;;;;;;4913089;29;20657;-75
2022/05/16 11:31:59;;;;;;;0.80;0.80;;;35.30;40.40;;;;;;4967304;28;20403;-75
2022/05/16 11:34:49;;;;;;;0.55;0.55;;;35.70;40.40;;;;;;4966721;28;20190;-75
2022/05/16 11:37:39;;;;;;;0.60;0.60;;;35.80;40.00;;;;;;4972834;28;20230;-75
2022/05/16 11:40:11;;;;;;;1.10;0.60;;;35.90;39.40;;;;;;4973908;28;20876;-74
2022/05/16 11:42:50;;;;;;;0.75;0.65;;;36.30;40.30;;;;;;4970476;28;20619;-74
2022/05/16 11:45:16;;;;;;;0.80;0.80;;;36.30;37.90;;;;;;5009429;28;20705;-74
2022/05/16 11:48:08;;;;;;;0.50;0.50;;;36.30;39.80;;;;;;5011326;28;20218;-76
2022/05/16 11:50:46;;;;;;;0.75;0.50;;;36.10;39.30;;;;;;4948689;28;20197;-75
2022/05/16 11:53:36;;;;;;;0.75;0.75;;;35.90;39.00;;;;;;4950035;28;20191;-75
2022/05/16 12:01:39;;;;;;;0.90;0.60;;;36.50;38.80;;;;;;4954260;28;20277;-75
2022/05/16 12:04:13;;;;;;;2.47;0.60;;;36.40;38.70;;;;;;4940874;28;20668;-75
2022/05/16 12:06:48;;;;;;;0.40;0.40;;;36.20;37.40;;;;;;4953711;28;20360;-75
2022/05/16 12:09:16;;;;;;;1.48;0.40;;;36.00;37.90;;;;;;4948774;28;20190;-75
2022/05/16 12:12:01;;;;;;;0.57;0.57;;;36.00;40.10;;;;;;4942819;28;20346;-75
2022/05/16 12:14:32;;;;;;;0.50;0.40;;;36.50;39.10;;;;;;4952489;28;20459;-75
2022/05/16 12:17:18;;;;;;;0.40;0.40;;;36.90;40.00;;;;;;4931262;28;20219;-75
2022/05/16 12:19:51;;;;;;;0.50;0.50;;;36.80;38.40;;;;;;4952167;28;20189;-76
2022/05/16 12:22:35;;;;;;;0.52;0.52;;;36.80;37.70;;;;;;4953847;28;20194;-75
2022/05/16 12:25:32;;;;;;;1.27;0.73;;;36.90;38.40;;;;;;4955561;28;20185;-75
2022/05/16 12:28:13;;;;;;;1.00;0.50;;;37.30;38.00;;;;;;4917662;29;20745;-75
2022/05/16 12:30:39;;;;;;;0.40;0.40;;;;;;;;;;4943546;29;20190;-75
2022/05/16 12:33:25;;;;;;;0.30;0.30;;;37.40;38.10;;;;;;4945456;29;20293;-75
2022/05/16 12:35:53;;;;;;;0.35;0.35;;;37.20;36.80;;;;;;4940698;29;20365;-75
2022/05/16 12:38:21;;;;;;;0.50;0.50;;;37.10;37.30;;;;;;4944939;29;20225;-75
2022/05/16 12:41:44;;;;;;;0.30;0.30;;;37.20;38.20;;;;;;4944571;29;20927;-75
2022/05/16 12:44:25;;;;;;;0.32;0.32;;;37.70;36.40;;;;;;4945999;29;20202;-75
2022/05/16 12:47:19;;;;;;;2.58;0.45;;;38.20;36.80;;;;;;4943055;28;20190;-76
2022/05/16 12:50:09;;;;;;;1.13;0.30;;;38.60;34.30;;;;;;4943264;28;20213;-75
2022/05/16 12:52:38;;;;;;;0.40;0.40;;;38.40;34.40;;;;;;4944984;29;20215;-75
2022/05/16 12:55:33;;;;;;;0.25;0.25;;;38.20;35.40;;;;;;4945402;29;20214;-76
2022/05/16 12:58:12;;;;;;;0.40;0.40;;;38.00;36.10;;;;;;4932297;29;20210;-76
2022/05/16 13:00:51;;;;;;;0.75;0.43;;;38.30;35.00;;;;;;4945749;29;20199;-75
2022/05/16 13:03:29;;;;;;;3.03;0.57;;;37.90;37.00;;;;;;4947114;28;20245;-75
2022/05/16 13:06:03;;;;;;;0.50;0.50;;;37.50;35.30;;;;;;5014102;28;20180;-75
2022/05/16 13:08:42;;;;;;;1.33;0.50;;;37.30;36.70;;;;;;5017493;28;20832;-75
2022/05/16 13:11:18;;;;;;;3.03;0.50;;;37.40;38.00;;;;;;5019404;28;20177;-75
2022/05/16 13:14:05;;;;;;;0.77;0.60;;;37.60;37.20;;;;;;5015420;28;20645;-75
2022/05/16 13:16:57;;;;;;;0.70;0.70;;;38.10;36.00;;;;;;5015263;28;20229;-74
2022/05/16 13:19:30;;;;;;;1.73;0.60;;;38.10;36.00;;;;;;5013734;28;20275;-75
2022/05/16 13:22:15;;;;;;;1.60;0.60;;;38.40;35.10;;;;;;5018346;28;20612;-75
2022/05/16 13:24:41;;;;;;;1.85;0.68;;;38.40;36.10;;;;;;5006329;28;20188;-75
2022/05/16 13:29:59;;;;;;;0.68;0.68;;;37.70;36.10;;;;;;5008391;28;20190;-75
2022/05/16 13:32:30;;;;;;;0.82;0.60;;;37.60;35.90;;;;;;5013775;28;20191;-75
2022/05/16 13:35:07;;;;;;;1.40;0.57;;;37.10;37.60;;;;;;5009009;28;20175;-76
2022/05/16 13:37:59;;;;;;;0.45;0.43;;;36.80;37.60;;;;;;5006375;28;20222;-76
2022/05/16 13:40:33;;;;;;;0.65;0.65;;;36.80;38.30;;;;;;5011210;28;21056;-75
2022/05/16 13:42:58;;;;;;;0.50;0.50;;;37.10;37.10;;;;;;5006543;28;20306;-75
2022/05/16 13:45:27;;;;;;;0.52;0.52;;;37.10;37.20;;;;;;5011033;28;20583;-76
2022/05/16 13:48:03;;;;;;;0.57;0.57;;;37.30;39.70;;;;;;5009644;28;20215;-76
2022/05/16 13:50:31;;;;;;;0.57;0.57;;;37.30;37.20;;;;;;5010480;28;20184;-76
2022/05/16 13:52:57;;;;;;;0.65;0.60;;;37.50;38.00;;;;;;5012951;28;20741;-75
2022/05/16 13:55:25;;;;;;;0.60;0.60;;;37.60;36.80;;;;;;5009774;28;20211;-75
2022/05/16 13:57:51;;;;;;;0.60;0.60;;;37.30;37.20;;;;;;5010983;28;20306;-76